EGNX/EMA METAR and TAF weather

Enter ICAO airport designator
Station Type Date Time Source
EGNX METAR 2020/09/18 08:20 UTC NOAA

EGNX 180820Z 03010KT 9999 BKN023 13/10 Q1026


Station Type Date Time Source
EGNX Decoded METAR 2020/09/18 08:20 UTC NOAA

East Midlands, United Kingdom (EGNX) 52-50N 001-20W
Sep 18, 2020 - 04:20 AM EDT / 2020.09.18 0820 UTC
Wind: from the NNE (030 degrees) at 12 MPH (10 KT):0
Visibility: greater than 7 mile(s):0
Sky conditions: mostly cloudy
Temperature: 55 F (13 C)
Dew Point: 50 F (10 C)
Relative Humidity: 81%
Pressure (altimeter): 30.30 in. Hg (1026 hPa)
ob: EGNX 180820Z 03010KT 9999 BKN023 13/10 Q1026
cycle: 8

Station Type Date Time Source
EGNX TAF 2020/09/18 06:09 UTC NOAA

TAF EGNX 180452Z 1806/1906 04009KT 9999 FEW020 PROB30
TEMPO 1816/1906 05015G25KT

Example: see airport list